sensor_id;sensor_type;location;lat;lon;timestamp;P1;durP1;ratioP1;P2;durP2;ratioP2
2404;SDS011;1213;43.206;27.922;2022-11-20T00:01:39;8.53;;;4.10;;
2404;SDS011;1213;43.206;27.922;2022-11-20T00:04:04;6.00;;;4.70;;
2404;SDS011;1213;43.206;27.922;2022-11-20T00:06:29;6.83;;;3.40;;
2404;SDS011;1213;43.206;27.922;2022-11-20T00:08:56;5.10;;;3.53;;
2404;SDS011;1213;43.206;27.922;2022-11-20T00:11:22;3.57;;;3.27;;
2404;SDS011;1213;43.206;27.922;2022-11-20T00:13:48;4.80;;;3.10;;
2404;SDS011;1213;43.206;27.922;2022-11-20T00:16:15;8.40;;;3.10;;
2404;SDS011;1213;43.206;27.922;2022-11-20T00:18:41;4.03;;;3.13;;
2404;SDS011;1213;43.206;27.922;2022-11-20T00:21:10;4.50;;;2.37;;
2404;SDS011;1213;43.206;27.922;2022-11-20T00:23:36;6.67;;;3.00;;
2404;SDS011;1213;43.206;27.922;2022-11-20T00:26:05;5.87;;;3.40;;
2404;SDS011;1213;43.206;27.922;2022-11-20T00:28:31;4.00;;;2.80;;
2404;SDS011;1213;43.206;27.922;2022-11-20T00:31:06;15.10;;;4.20;;
2404;SDS011;1213;43.206;27.922;2022-11-20T00:33:32;5.97;;;3.47;;
2404;SDS011;1213;43.206;27.922;2022-11-20T00:36:07;4.07;;;2.73;;
2404;SDS011;1213;43.206;27.922;2022-11-20T00:38:33;8.13;;;3.60;;
2404;SDS011;1213;43.206;27.922;2022-11-20T00:40:59;9.20;;;2.53;;
2404;SDS011;1213;43.206;27.922;2022-11-20T00:43:24;4.10;;;2.87;;
2404;SDS011;1213;43.206;27.922;2022-11-20T00:45:50;4.93;;;2.53;;
2404;SDS011;1213;43.206;27.922;2022-11-20T00:48:15;3.60;;;2.70;;
2404;SDS011;1213;43.206;27.922;2022-11-20T00:50:40;8.33;;;2.80;;
2404;SDS011;1213;43.206;27.922;2022-11-20T00:53:06;4.00;;;3.70;;
2404;SDS011;1213;43.206;27.922;2022-11-20T00:55:31;6.50;;;3.00;;
2404;SDS011;1213;43.206;27.922;2022-11-20T00:57:56;4.40;;;2.80;;
2404;SDS011;1213;43.206;27.922;2022-11-20T01:00:21;7.00;;;2.90;;
2404;SDS011;1213;43.206;27.922;2022-11-20T01:02:47;4.90;;;3.13;;
2404;SDS011;1213;43.206;27.922;2022-11-20T01:05:12;7.67;;;3.70;;
2404;SDS011;1213;43.206;27.922;2022-11-20T01:07:37;6.10;;;4.00;;
2404;SDS011;1213;43.206;27.922;2022-11-20T01:10:03;7.33;;;5.30;;
2404;SDS011;1213;43.206;27.922;2022-11-20T01:12:28;9.77;;;3.67;;
2404;SDS011;1213;43.206;27.922;2022-11-20T01:14:53;5.27;;;2.63;;
2404;SDS011;1213;43.206;27.922;2022-11-20T01:17:19;12.50;;;3.97;;
2404;SDS011;1213;43.206;27.922;2022-11-20T01:19:44;4.70;;;3.47;;
2404;SDS011;1213;43.206;27.922;2022-11-20T01:22:09;6.33;;;3.13;;
2404;SDS011;1213;43.206;27.922;2022-11-20T01:24:35;5.17;;;3.23;;
2404;SDS011;1213;43.206;27.922;2022-11-20T01:27:00;5.83;;;3.90;;
2404;SDS011;1213;43.206;27.922;2022-11-20T01:29:25;3.80;;;2.90;;
2404;SDS011;1213;43.206;27.922;2022-11-20T01:31:51;3.50;;;3.20;;
2404;SDS011;1213;43.206;27.922;2022-11-20T01:34:18;6.80;;;4.53;;
2404;SDS011;1213;43.206;27.922;2022-11-20T01:36:44;4.33;;;3.80;;
2404;SDS011;1213;43.206;27.922;2022-11-20T01:39:11;3.30;;;3.03;;
2404;SDS011;1213;43.206;27.922;2022-11-20T01:41:37;8.63;;;4.53;;
2404;SDS011;1213;43.206;27.922;2022-11-20T01:44:22;3.70;;;3.37;;
2404;SDS011;1213;43.206;27.922;2022-11-20T01:46:52;5.03;;;2.90;;
2404;SDS011;1213;43.206;27.922;2022-11-20T01:49:21;3.87;;;3.53;;
2404;SDS011;1213;43.206;27.922;2022-11-20T01:51:49;7.47;;;4.20;;
2404;SDS011;1213;43.206;27.922;2022-11-20T01:54:17;8.93;;;3.57;;
2404;SDS011;1213;43.206;27.922;2022-11-20T01:56:44;5.40;;;3.30;;
2404;SDS011;1213;43.206;27.922;2022-11-20T01:59:10;4.67;;;3.23;;
2404;SDS011;1213;43.206;27.922;2022-11-20T02:01:37;3.07;;;2.87;;
2404;SDS011;1213;43.206;27.922;2022-11-20T02:04:04;4.80;;;2.90;;
2404;SDS011;1213;43.206;27.922;2022-11-20T02:06:30;3.67;;;3.37;;
2404;SDS011;1213;43.206;27.922;2022-11-20T02:08:56;4.03;;;3.37;;
2404;SDS011;1213;43.206;27.922;2022-11-20T02:11:22;7.47;;;3.00;;
2404;SDS011;1213;43.206;27.922;2022-11-20T02:13:47;8.53;;;3.10;;
2404;SDS011;1213;43.206;27.922;2022-11-20T02:16:14;2.40;;;2.20;;
2404;SDS011;1213;43.206;27.922;2022-11-20T02:18:40;8.03;;;3.43;;
2404;SDS011;1213;43.206;27.922;2022-11-20T02:21:12;3.07;;;2.77;;
2404;SDS011;1213;43.206;27.922;2022-11-20T02:24:23;3.87;;;2.90;;
2404;SDS011;1213;43.206;27.922;2022-11-20T02:26:24;10.70;;;3.00;;
2404;SDS011;1213;43.206;27.922;2022-11-20T02:28:50;4.20;;;2.77;;
2404;SDS011;1213;43.206;27.922;2022-11-20T02:31:15;3.70;;;3.03;;
2404;SDS011;1213;43.206;27.922;2022-11-20T02:33:41;6.07;;;3.10;;
2404;SDS011;1213;43.206;27.922;2022-11-20T02:36:07;7.40;;;2.87;;
2404;SDS011;1213;43.206;27.922;2022-11-20T02:38:33;14.00;;;4.20;;
2404;SDS011;1213;43.206;27.922;2022-11-20T02:40:58;9.53;;;3.90;;
2404;SDS011;1213;43.206;27.922;2022-11-20T02:43:24;6.87;;;3.77;;
2404;SDS011;1213;43.206;27.922;2022-11-20T02:45:49;4.50;;;3.67;;
2404;SDS011;1213;43.206;27.922;2022-11-20T02:48:14;8.10;;;3.03;;
2404;SDS011;1213;43.206;27.922;2022-11-20T02:50:39;6.57;;;2.40;;
2404;SDS011;1213;43.206;27.922;2022-11-20T02:53:05;6.20;;;3.30;;
2404;SDS011;1213;43.206;27.922;2022-11-20T02:55:30;4.50;;;3.40;;
2404;SDS011;1213;43.206;27.922;2022-11-20T02:57:56;3.83;;;2.80;;
2404;SDS011;1213;43.206;27.922;2022-11-20T03:00:21;2.57;;;2.30;;
2404;SDS011;1213;43.206;27.922;2022-11-20T03:02:46;7.23;;;3.63;;
2404;SDS011;1213;43.206;27.922;2022-11-20T03:05:12;5.07;;;3.20;;
2404;SDS011;1213;43.206;27.922;2022-11-20T03:07:37;6.00;;;3.70;;
2404;SDS011;1213;43.206;27.922;2022-11-20T03:10:03;3.27;;;2.50;;
2404;SDS011;1213;43.206;27.922;2022-11-20T03:12:28;3.20;;;2.50;;
2404;SDS011;1213;43.206;27.922;2022-11-20T03:14:53;5.97;;;2.90;;
2404;SDS011;1213;43.206;27.922;2022-11-20T03:17:19;3.40;;;2.50;;
2404;SDS011;1213;43.206;27.922;2022-11-20T03:19:44;3.67;;;2.93;;
2404;SDS011;1213;43.206;27.922;2022-11-20T03:22:09;6.00;;;3.50;;
2404;SDS011;1213;43.206;27.922;2022-11-20T03:24:35;15.37;;;3.20;;
2404;SDS011;1213;43.206;27.922;2022-11-20T03:27:00;3.60;;;3.30;;
2404;SDS011;1213;43.206;27.922;2022-11-20T03:29:25;8.33;;;2.97;;
2404;SDS011;1213;43.206;27.922;2022-11-20T03:31:50;4.57;;;2.80;;
2404;SDS011;1213;43.206;27.922;2022-11-20T03:34:16;10.20;;;2.63;;
2404;SDS011;1213;43.206;27.922;2022-11-20T03:36:43;3.47;;;2.47;;
2404;SDS011;1213;43.206;27.922;2022-11-20T03:39:08;4.67;;;2.87;;
2404;SDS011;1213;43.206;27.922;2022-11-20T03:41:38;9.97;;;3.40;;
2404;SDS011;1213;43.206;27.922;2022-11-20T03:44:04;5.77;;;3.70;;
2404;SDS011;1213;43.206;27.922;2022-11-20T03:46:30;10.83;;;2.77;;
2404;SDS011;1213;43.206;27.922;2022-11-20T03:48:55;6.23;;;2.80;;
2404;SDS011;1213;43.206;27.922;2022-11-20T03:51:21;5.37;;;3.80;;
2404;SDS011;1213;43.206;27.922;2022-11-20T03:53:48;8.67;;;3.43;;
2404;SDS011;1213;43.206;27.922;2022-11-20T03:56:14;7.47;;;3.90;;
2404;SDS011;1213;43.206;27.922;2022-11-20T03:58:40;4.50;;;3.17;;
2404;SDS011;1213;43.206;27.922;2022-11-20T04:01:06;10.50;;;4.00;;
2404;SDS011;1213;43.206;27.922;2022-11-20T04:03:32;4.13;;;2.90;;
2404;SDS011;1213;43.206;27.922;2022-11-20T04:06:05;7.00;;;3.20;;
2404;SDS011;1213;43.206;27.922;2022-11-20T04:08:31;6.40;;;2.87;;
2404;SDS011;1213;43.206;27.922;2022-11-20T04:10:56;6.27;;;2.40;;
2404;SDS011;1213;43.206;27.922;2022-11-20T04:13:21;5.03;;;3.63;;
2404;SDS011;1213;43.206;27.922;2022-11-20T04:15:46;4.73;;;3.13;;
2404;SDS011;1213;43.206;27.922;2022-11-20T04:18:12;10.33;;;3.17;;
2404;SDS011;1213;43.206;27.922;2022-11-20T04:20:37;3.87;;;2.40;;
2404;SDS011;1213;43.206;27.922;2022-11-20T04:23:02;4.00;;;2.07;;
2404;SDS011;1213;43.206;27.922;2022-11-20T04:25:28;2.70;;;2.50;;
2404;SDS011;1213;43.206;27.922;2022-11-20T04:27:53;3.60;;;2.70;;
2404;SDS011;1213;43.206;27.922;2022-11-20T04:30:18;11.73;;;3.23;;
2404;SDS011;1213;43.206;27.922;2022-11-20T04:32:43;2.20;;;2.10;;
2404;SDS011;1213;43.206;27.922;2022-11-20T04:35:09;2.90;;;2.13;;
2404;SDS011;1213;43.206;27.922;2022-11-20T04:37:34;3.30;;;1.93;;
2404;SDS011;1213;43.206;27.922;2022-11-20T04:39:59;2.10;;;1.90;;
2404;SDS011;1213;43.206;27.922;2022-11-20T04:42:24;1.60;;;1.50;;
2404;SDS011;1213;43.206;27.922;2022-11-20T04:44:56;6.77;;;2.00;;
2404;SDS011;1213;43.206;27.922;2022-11-20T04:47:21;5.07;;;2.13;;
2404;SDS011;1213;43.206;27.922;2022-11-20T04:49:47;2.10;;;1.90;;
2404;SDS011;1213;43.206;27.922;2022-11-20T04:52:12;3.00;;;2.20;;
2404;SDS011;1213;43.206;27.922;2022-11-20T04:54:38;7.10;;;2.30;;
2404;SDS011;1213;43.206;27.922;2022-11-20T04:57:03;2.70;;;2.33;;
2404;SDS011;1213;43.206;27.922;2022-11-20T04:59:28;2.43;;;1.90;;
2404;SDS011;1213;43.206;27.922;2022-11-20T05:01:53;5.63;;;2.00;;
2404;SDS011;1213;43.206;27.922;2022-11-20T05:04:19;7.37;;;1.50;;
2404;SDS011;1213;43.206;27.922;2022-11-20T05:06:44;2.93;;;1.80;;
2404;SDS011;1213;43.206;27.922;2022-11-20T05:09:10;3.63;;;1.60;;
2404;SDS011;1213;43.206;27.922;2022-11-20T05:11:36;2.63;;;1.80;;
2404;SDS011;1213;43.206;27.922;2022-11-20T05:14:01;8.27;;;2.50;;
2404;SDS011;1213;43.206;27.922;2022-11-20T05:16:26;2.17;;;1.67;;
2404;SDS011;1213;43.206;27.922;2022-11-20T05:18:52;5.13;;;2.33;;
2404;SDS011;1213;43.206;27.922;2022-11-20T05:21:18;4.27;;;2.03;;
2404;SDS011;1213;43.206;27.922;2022-11-20T05:23:44;2.00;;;1.80;;
2404;SDS011;1213;43.206;27.922;2022-11-20T05:26:14;4.03;;;2.43;;
2404;SDS011;1213;43.206;27.922;2022-11-20T05:28:39;5.30;;;1.80;;
2404;SDS011;1213;43.206;27.922;2022-11-20T05:31:05;9.70;;;2.57;;
2404;SDS011;1213;43.206;27.922;2022-11-20T05:33:31;10.43;;;2.20;;
2404;SDS011;1213;43.206;27.922;2022-11-20T05:35:59;3.70;;;1.57;;
2404;SDS011;1213;43.206;27.922;2022-11-20T05:38:24;10.43;;;2.60;;
2404;SDS011;1213;43.206;27.922;2022-11-20T05:40:50;2.60;;;1.97;;
2404;SDS011;1213;43.206;27.922;2022-11-20T05:43:15;1.43;;;1.33;;
2404;SDS011;1213;43.206;27.922;2022-11-20T05:45:40;5.20;;;2.20;;
2404;SDS011;1213;43.206;27.922;2022-11-20T05:48:05;8.93;;;2.20;;
2404;SDS011;1213;43.206;27.922;2022-11-20T05:50:31;2.30;;;1.70;;
2404;SDS011;1213;43.206;27.922;2022-11-20T05:53:00;2.63;;;1.90;;
2404;SDS011;1213;43.206;27.922;2022-11-20T05:55:26;2.47;;;1.80;;
2404;SDS011;1213;43.206;27.922;2022-11-20T05:57:52;3.63;;;2.00;;
2404;SDS011;1213;43.206;27.922;2022-11-20T06:00:18;6.23;;;1.70;;
2404;SDS011;1213;43.206;27.922;2022-11-20T06:02:43;4.90;;;2.03;;
2404;SDS011;1213;43.206;27.922;2022-11-20T06:05:08;1.63;;;1.53;;
2404;SDS011;1213;43.206;27.922;2022-11-20T06:07:34;5.33;;;1.43;;
2404;SDS011;1213;43.206;27.922;2022-11-20T06:09:59;2.80;;;1.40;;
2404;SDS011;1213;43.206;27.922;2022-11-20T06:12:24;4.20;;;1.70;;
2404;SDS011;1213;43.206;27.922;2022-11-20T06:14:50;5.90;;;2.20;;
2404;SDS011;1213;43.206;27.922;2022-11-20T06:17:15;2.57;;;2.20;;
2404;SDS011;1213;43.206;27.922;2022-11-20T06:19:40;2.57;;;2.00;;
2404;SDS011;1213;43.206;27.922;2022-11-20T06:22:05;3.67;;;1.83;;
2404;SDS011;1213;43.206;27.922;2022-11-20T06:24:31;5.50;;;2.83;;
2404;SDS011;1213;43.206;27.922;2022-11-20T06:26:56;2.63;;;1.50;;
2404;SDS011;1213;43.206;27.922;2022-11-20T06:29:21;2.00;;;1.50;;
2404;SDS011;1213;43.206;27.922;2022-11-20T06:31:46;3.10;;;1.87;;
2404;SDS011;1213;43.206;27.922;2022-11-20T06:34:12;1.83;;;1.63;;
2404;SDS011;1213;43.206;27.922;2022-11-20T06:36:37;3.23;;;2.90;;
2404;SDS011;1213;43.206;27.922;2022-11-20T06:39:03;5.23;;;2.77;;
2404;SDS011;1213;43.206;27.922;2022-11-20T06:41:28;3.90;;;2.37;;
2404;SDS011;1213;43.206;27.922;2022-11-20T06:43:53;3.93;;;2.13;;
2404;SDS011;1213;43.206;27.922;2022-11-20T06:46:19;3.70;;;1.77;;
2404;SDS011;1213;43.206;27.922;2022-11-20T06:48:45;4.13;;;1.50;;
2404;SDS011;1213;43.206;27.922;2022-11-20T06:51:11;3.70;;;1.90;;
2404;SDS011;1213;43.206;27.922;2022-11-20T06:53:36;3.17;;;1.53;;
2404;SDS011;1213;43.206;27.922;2022-11-20T06:56:01;2.10;;;1.70;;
2404;SDS011;1213;43.206;27.922;2022-11-20T06:58:27;6.73;;;1.77;;
2404;SDS011;1213;43.206;27.922;2022-11-20T07:00:53;5.17;;;1.47;;
2404;SDS011;1213;43.206;27.922;2022-11-20T07:03:18;9.23;;;2.00;;
2404;SDS011;1213;43.206;27.922;2022-11-20T07:05:44;3.80;;;2.03;;
2404;SDS011;1213;43.206;27.922;2022-11-20T07:08:11;8.23;;;2.13;;
2404;SDS011;1213;43.206;27.922;2022-11-20T07:10:36;11.77;;;2.30;;
2404;SDS011;1213;43.206;27.922;2022-11-20T07:13:01;9.00;;;2.40;;
2404;SDS011;1213;43.206;27.922;2022-11-20T07:15:26;4.63;;;2.57;;
2404;SDS011;1213;43.206;27.922;2022-11-20T07:17:52;7.90;;;2.87;;
2404;SDS011;1213;43.206;27.922;2022-11-20T07:20:17;2.97;;;2.20;;
2404;SDS011;1213;43.206;27.922;2022-11-20T07:22:43;2.33;;;1.70;;
2404;SDS011;1213;43.206;27.922;2022-11-20T07:25:08;0.97;;;0.87;;
2404;SDS011;1213;43.206;27.922;2022-11-20T07:27:34;8.77;;;2.10;;
2404;SDS011;1213;43.206;27.922;2022-11-20T07:29:59;2.13;;;1.70;;
2404;SDS011;1213;43.206;27.922;2022-11-20T07:32:25;3.43;;;2.07;;
2404;SDS011;1213;43.206;27.922;2022-11-20T07:34:50;9.77;;;2.10;;
2404;SDS011;1213;43.206;27.922;2022-11-20T07:37:16;2.77;;;1.47;;
2404;SDS011;1213;43.206;27.922;2022-11-20T07:39:41;3.40;;;1.87;;
2404;SDS011;1213;43.206;27.922;2022-11-20T07:42:06;3.00;;;1.90;;
2404;SDS011;1213;43.206;27.922;2022-11-20T07:44:32;6.30;;;2.13;;
2404;SDS011;1213;43.206;27.922;2022-11-20T07:46:57;7.63;;;2.03;;
2404;SDS011;1213;43.206;27.922;2022-11-20T07:49:22;5.37;;;1.50;;
2404;SDS011;1213;43.206;27.922;2022-11-20T07:51:50;4.93;;;2.00;;
2404;SDS011;1213;43.206;27.922;2022-11-20T07:54:15;2.80;;;1.30;;
2404;SDS011;1213;43.206;27.922;2022-11-20T07:56:41;1.40;;;1.30;;
2404;SDS011;1213;43.206;27.922;2022-11-20T07:59:06;3.47;;;1.70;;
2404;SDS011;1213;43.206;27.922;2022-11-20T08:01:32;9.70;;;2.17;;
2404;SDS011;1213;43.206;27.922;2022-11-20T08:03:57;4.47;;;1.33;;
2404;SDS011;1213;43.206;27.922;2022-11-20T08:06:22;3.60;;;1.80;;
2404;SDS011;1213;43.206;27.922;2022-11-20T08:08:49;2.63;;;1.80;;
2404;SDS011;1213;43.206;27.922;2022-11-20T08:11:15;4.07;;;2.10;;
2404;SDS011;1213;43.206;27.922;2022-11-20T08:13:59;6.30;;;2.00;;
2404;SDS011;1213;43.206;27.922;2022-11-20T08:16:44;5.93;;;2.27;;
2404;SDS011;1213;43.206;27.922;2022-11-20T08:19:09;4.37;;;1.73;;
2404;SDS011;1213;43.206;27.922;2022-11-20T08:21:35;4.60;;;2.53;;
2404;SDS011;1213;43.206;27.922;2022-11-20T08:24:00;3.20;;;1.80;;
2404;SDS011;1213;43.206;27.922;2022-11-20T08:26:25;3.30;;;1.73;;
2404;SDS011;1213;43.206;27.922;2022-11-20T08:28:57;5.07;;;2.00;;
2404;SDS011;1213;43.206;27.922;2022-11-20T08:31:23;10.40;;;2.33;;
2404;SDS011;1213;43.206;27.922;2022-11-20T08:33:49;6.67;;;2.13;;
2404;SDS011;1213;43.206;27.922;2022-11-20T08:36:14;6.77;;;2.07;;
2404;SDS011;1213;43.206;27.922;2022-11-20T08:38:40;5.57;;;2.33;;
2404;SDS011;1213;43.206;27.922;2022-11-20T08:41:05;4.27;;;1.80;;
2404;SDS011;1213;43.206;27.922;2022-11-20T08:43:54;2.90;;;1.97;;
2404;SDS011;1213;43.206;27.922;2022-11-20T08:46:20;2.97;;;2.30;;
2404;SDS011;1213;43.206;27.922;2022-11-20T08:48:45;3.97;;;1.80;;
2404;SDS011;1213;43.206;27.922;2022-11-20T08:51:11;5.13;;;1.83;;
2404;SDS011;1213;43.206;27.922;2022-11-20T08:53:37;5.37;;;1.90;;
2404;SDS011;1213;43.206;27.922;2022-11-20T08:56:02;6.20;;;2.87;;
2404;SDS011;1213;43.206;27.922;2022-11-20T08:58:28;13.40;;;2.53;;
2404;SDS011;1213;43.206;27.922;2022-11-20T09:00:53;6.93;;;2.23;;
2404;SDS011;1213;43.206;27.922;2022-11-20T09:03:19;7.60;;;2.00;;
2404;SDS011;1213;43.206;27.922;2022-11-20T09:05:44;5.07;;;1.67;;
2404;SDS011;1213;43.206;27.922;2022-11-20T09:08:09;3.80;;;1.73;;
2404;SDS011;1213;43.206;27.922;2022-11-20T09:10:35;10.07;;;2.80;;
2404;SDS011;1213;43.206;27.922;2022-11-20T09:13:01;3.83;;;2.33;;
2404;SDS011;1213;43.206;27.922;2022-11-20T09:15:26;6.70;;;2.23;;
2404;SDS011;1213;43.206;27.922;2022-11-20T09:20:17;4.20;;;2.00;;
2404;SDS011;1213;43.206;27.922;2022-11-20T09:22:43;6.30;;;2.17;;
2404;SDS011;1213;43.206;27.922;2022-11-20T09:25:08;4.17;;;2.20;;
2404;SDS011;1213;43.206;27.922;2022-11-20T09:27:34;3.20;;;2.50;;
2404;SDS011;1213;43.206;27.922;2022-11-20T09:30:00;4.60;;;2.00;;
2404;SDS011;1213;43.206;27.922;2022-11-20T09:32:25;2.80;;;2.23;;
2404;SDS011;1213;43.206;27.922;2022-11-20T09:34:51;4.80;;;1.80;;
2404;SDS011;1213;43.206;27.922;2022-11-20T09:37:16;4.50;;;2.93;;
2404;SDS011;1213;43.206;27.922;2022-11-20T09:39:41;2.70;;;1.87;;
2404;SDS011;1213;43.206;27.922;2022-11-20T09:44:57;3.90;;;2.03;;
2404;SDS011;1213;43.206;27.922;2022-11-20T09:47:41;6.70;;;1.50;;
2404;SDS011;1213;43.206;27.922;2022-11-20T09:55:20;3.20;;;2.10;;
2404;SDS011;1213;43.206;27.922;2022-11-20T09:57:46;6.57;;;1.47;;
2404;SDS011;1213;43.206;27.922;2022-11-20T10:00:13;5.57;;;1.83;;
2404;SDS011;1213;43.206;27.922;2022-11-20T10:02:42;4.97;;;2.40;;
2404;SDS011;1213;43.206;27.922;2022-11-20T10:10:32;4.97;;;2.50;;
2404;SDS011;1213;43.206;27.922;2022-11-20T10:25:39;3.10;;;2.10;;
2404;SDS011;1213;43.206;27.922;2022-11-20T10:28:13;2.30;;;2.03;;
2404;SDS011;1213;43.206;27.922;2022-11-20T10:30:41;4.00;;;1.80;;
2404;SDS011;1213;43.206;27.922;2022-11-20T10:33:15;1.53;;;1.10;;
2404;SDS011;1213;43.206;27.922;2022-11-20T10:35:43;4.67;;;1.80;;
2404;SDS011;1213;43.206;27.922;2022-11-20T10:38:15;4.93;;;2.27;;
2404;SDS011;1213;43.206;27.922;2022-11-20T10:40:43;5.67;;;1.67;;
2404;SDS011;1213;43.206;27.922;2022-11-20T10:43:13;3.40;;;2.17;;
2404;SDS011;1213;43.206;27.922;2022-11-20T10:50:32;2.30;;;1.87;;
2404;SDS011;1213;43.206;27.922;2022-11-20T10:53:16;16.97;;;2.50;;
2404;SDS011;1213;43.206;27.922;2022-11-20T10:55:46;2.60;;;1.73;;
2404;SDS011;1213;43.206;27.922;2022-11-20T10:58:15;3.77;;;1.77;;
2404;SDS011;1213;43.206;27.922;2022-11-20T11:00:42;1.83;;;1.43;;
2404;SDS011;1213;43.206;27.922;2022-11-20T11:03:26;7.70;;;2.37;;
2404;SDS011;1213;43.206;27.922;2022-11-20T11:06:10;4.43;;;1.70;;
2404;SDS011;1213;43.206;27.922;2022-11-20T11:08:38;1.90;;;1.77;;
2404;SDS011;1213;43.206;27.922;2022-11-20T11:11:15;4.03;;;2.87;;
2404;SDS011;1213;43.206;27.922;2022-11-20T11:13:43;2.40;;;2.20;;
2404;SDS011;1213;43.206;27.922;2022-11-20T11:16:16;6.80;;;1.97;;
2404;SDS011;1213;43.206;27.922;2022-11-20T11:18:44;4.80;;;2.37;;
2404;SDS011;1213;43.206;27.922;2022-11-20T11:21:09;3.47;;;2.23;;
2404;SDS011;1213;43.206;27.922;2022-11-20T11:23:39;5.10;;;2.00;;
2404;SDS011;1213;43.206;27.922;2022-11-20T11:26:05;13.83;;;2.40;;
2404;SDS011;1213;43.206;27.922;2022-11-20T11:28:31;11.13;;;2.53;;
2404;SDS011;1213;43.206;27.922;2022-11-20T11:30:57;7.33;;;2.60;;
2404;SDS011;1213;43.206;27.922;2022-11-20T11:33:26;3.73;;;2.00;;
2404;SDS011;1213;43.206;27.922;2022-11-20T11:35:53;4.80;;;2.90;;
2404;SDS011;1213;43.206;27.922;2022-11-20T11:38:23;9.80;;;1.60;;
2404;SDS011;1213;43.206;27.922;2022-11-20T11:40:53;8.30;;;1.97;;
2404;SDS011;1213;43.206;27.922;2022-11-20T11:43:22;10.10;;;2.47;;
2404;SDS011;1213;43.206;27.922;2022-11-20T11:48:54;6.03;;;2.23;;
2404;SDS011;1213;43.206;27.922;2022-11-20T11:51:20;15.43;;;2.60;;
2404;SDS011;1213;43.206;27.922;2022-11-20T11:53:45;9.10;;;2.97;;
2404;SDS011;1213;43.206;27.922;2022-11-20T11:56:11;7.83;;;6.40;;
2404;SDS011;1213;43.206;27.922;2022-11-20T11:58:47;17.63;;;11.13;;
2404;SDS011;1213;43.206;27.922;2022-11-20T12:06:34;15.23;;;10.20;;
2404;SDS011;1213;43.206;27.922;2022-11-20T12:09:05;14.57;;;7.80;;
2404;SDS011;1213;43.206;27.922;2022-11-20T12:14:09;9.80;;;6.80;;
2404;SDS011;1213;43.206;27.922;2022-11-20T12:16:36;14.33;;;5.33;;
2404;SDS011;1213;43.206;27.922;2022-11-20T12:19:03;5.30;;;3.10;;
2404;SDS011;1213;43.206;27.922;2022-11-20T12:21:39;4.70;;;2.53;;
2404;SDS011;1213;43.206;27.922;2022-11-20T12:34:04;6.37;;;2.57;;
2404;SDS011;1213;43.206;27.922;2022-11-20T12:36:53;2.60;;;1.73;;
2404;SDS011;1213;43.206;27.922;2022-11-20T12:45:10;4.33;;;2.40;;
2404;SDS011;1213;43.206;27.922;2022-11-20T12:47:46;13.20;;;3.90;;
2404;SDS011;1213;43.206;27.922;2022-11-20T12:50:17;4.97;;;2.70;;
2404;SDS011;1213;43.206;27.922;2022-11-20T12:55:14;5.17;;;2.40;;
2404;SDS011;1213;43.206;27.922;2022-11-20T13:00:26;6.43;;;2.57;;
2404;SDS011;1213;43.206;27.922;2022-11-20T13:08:03;7.00;;;2.50;;
2404;SDS011;1213;43.206;27.922;2022-11-20T13:13:00;9.37;;;2.73;;
2404;SDS011;1213;43.206;27.922;2022-11-20T13:17:53;3.40;;;2.23;;
2404;SDS011;1213;43.206;27.922;2022-11-20T13:20:19;15.70;;;3.80;;
2404;SDS011;1213;43.206;27.922;2022-11-20T13:22:49;13.13;;;2.80;;
2404;SDS011;1213;43.206;27.922;2022-11-20T13:25:32;11.90;;;3.27;;
2404;SDS011;1213;43.206;27.922;2022-11-20T13:27:59;6.73;;;3.77;;
2404;SDS011;1213;43.206;27.922;2022-11-20T13:30:26;13.40;;;3.73;;
2404;SDS011;1213;43.206;27.922;2022-11-20T13:40:26;12.37;;;3.40;;
2404;SDS011;1213;43.206;27.922;2022-11-20T13:43:10;13.23;;;3.40;;
2404;SDS011;1213;43.206;27.922;2022-11-20T13:45:39;13.37;;;3.47;;
2404;SDS011;1213;43.206;27.922;2022-11-20T13:48:15;19.20;;;3.60;;
2404;SDS011;1213;43.206;27.922;2022-11-20T13:50:48;10.00;;;3.27;;
2404;SDS011;1213;43.206;27.922;2022-11-20T13:58:19;9.67;;;4.27;;
2404;SDS011;1213;43.206;27.922;2022-11-20T14:00:57;17.77;;;4.80;;
2404;SDS011;1213;43.206;27.922;2022-11-20T14:03:23;9.37;;;4.10;;
2404;SDS011;1213;43.206;27.922;2022-11-20T14:05:50;13.27;;;4.73;;
2404;SDS011;1213;43.206;27.922;2022-11-20T14:08:23;10.40;;;3.03;;
2404;SDS011;1213;43.206;27.922;2022-11-20T14:10:49;6.17;;;3.47;;
2404;SDS011;1213;43.206;27.922;2022-11-20T14:13:18;15.47;;;3.20;;
2404;SDS011;1213;43.206;27.922;2022-11-20T14:15:43;7.03;;;3.80;;
2404;SDS011;1213;43.206;27.922;2022-11-20T14:18:12;3.40;;;3.07;;
2404;SDS011;1213;43.206;27.922;2022-11-20T14:20:38;6.03;;;3.40;;
2404;SDS011;1213;43.206;27.922;2022-11-20T14:23:03;12.57;;;4.90;;
2404;SDS011;1213;43.206;27.922;2022-11-20T14:25:30;7.33;;;3.03;;
2404;SDS011;1213;43.206;27.922;2022-11-20T14:27:59;6.30;;;3.07;;
2404;SDS011;1213;43.206;27.922;2022-11-20T14:30:26;18.70;;;2.90;;
2404;SDS011;1213;43.206;27.922;2022-11-20T14:32:53;4.70;;;3.03;;
2404;SDS011;1213;43.206;27.922;2022-11-20T14:35:27;10.10;;;3.20;;
2404;SDS011;1213;43.206;27.922;2022-11-20T14:37:52;9.07;;;3.03;;
2404;SDS011;1213;43.206;27.922;2022-11-20T14:40:31;5.70;;;3.07;;
2404;SDS011;1213;43.206;27.922;2022-11-20T14:42:58;7.27;;;2.87;;
2404;SDS011;1213;43.206;27.922;2022-11-20T14:45:23;4.63;;;2.63;;
2404;SDS011;1213;43.206;27.922;2022-11-20T14:47:49;13.03;;;2.87;;
2404;SDS011;1213;43.206;27.922;2022-11-20T14:50:22;9.10;;;3.60;;
2404;SDS011;1213;43.206;27.922;2022-11-20T14:52:54;4.60;;;3.23;;
2404;SDS011;1213;43.206;27.922;2022-11-20T14:57:55;7.77;;;3.87;;
2404;SDS011;1213;43.206;27.922;2022-11-20T15:00:21;7.40;;;2.77;;
2404;SDS011;1213;43.206;27.922;2022-11-20T15:02:48;11.67;;;3.67;;
2404;SDS011;1213;43.206;27.922;2022-11-20T15:05:14;7.93;;;2.77;;
2404;SDS011;1213;43.206;27.922;2022-11-20T15:07:42;8.20;;;2.20;;
2404;SDS011;1213;43.206;27.922;2022-11-20T15:12:45;12.20;;;3.60;;
2404;SDS011;1213;43.206;27.922;2022-11-20T15:15:11;14.20;;;3.73;;
2404;SDS011;1213;43.206;27.922;2022-11-20T15:17:37;19.60;;;4.10;;
2404;SDS011;1213;43.206;27.922;2022-11-20T15:20:05;6.10;;;2.50;;
2404;SDS011;1213;43.206;27.922;2022-11-20T15:22:34;10.40;;;3.37;;
2404;SDS011;1213;43.206;27.922;2022-11-20T15:24:59;9.43;;;3.37;;
2404;SDS011;1213;43.206;27.922;2022-11-20T15:27:25;9.07;;;3.07;;
2404;SDS011;1213;43.206;27.922;2022-11-20T15:29:50;7.37;;;2.90;;
2404;SDS011;1213;43.206;27.922;2022-11-20T15:32:15;3.43;;;2.63;;
2404;SDS011;1213;43.206;27.922;2022-11-20T15:34:41;6.03;;;2.67;;
2404;SDS011;1213;43.206;27.922;2022-11-20T15:37:06;10.10;;;3.83;;
2404;SDS011;1213;43.206;27.922;2022-11-20T15:39:31;11.07;;;3.27;;
2404;SDS011;1213;43.206;27.922;2022-11-20T15:41:56;14.83;;;4.57;;
2404;SDS011;1213;43.206;27.922;2022-11-20T15:44:22;12.83;;;4.40;;
2404;SDS011;1213;43.206;27.922;2022-11-20T15:46:47;12.67;;;4.27;;
2404;SDS011;1213;43.206;27.922;2022-11-20T15:49:14;7.50;;;4.43;;
2404;SDS011;1213;43.206;27.922;2022-11-20T15:51:39;16.43;;;4.23;;
2404;SDS011;1213;43.206;27.922;2022-11-20T15:54:09;12.00;;;4.73;;
2404;SDS011;1213;43.206;27.922;2022-11-20T15:56:35;12.90;;;4.10;;
2404;SDS011;1213;43.206;27.922;2022-11-20T15:59:01;17.77;;;6.13;;
2404;SDS011;1213;43.206;27.922;2022-11-20T16:01:26;9.03;;;4.33;;
2404;SDS011;1213;43.206;27.922;2022-11-20T16:03:51;13.10;;;4.50;;
2404;SDS011;1213;43.206;27.922;2022-11-20T16:06:17;3.83;;;3.40;;
2404;SDS011;1213;43.206;27.922;2022-11-20T16:08:42;15.87;;;3.80;;
2404;SDS011;1213;43.206;27.922;2022-11-20T16:11:10;9.27;;;4.60;;
2404;SDS011;1213;43.206;27.922;2022-11-20T16:13:35;7.07;;;3.80;;
2404;SDS011;1213;43.206;27.922;2022-11-20T16:16:23;6.97;;;4.23;;
2404;SDS011;1213;43.206;27.922;2022-11-20T16:18:48;9.57;;;5.17;;
2404;SDS011;1213;43.206;27.922;2022-11-20T16:21:14;16.50;;;4.90;;
2404;SDS011;1213;43.206;27.922;2022-11-20T16:23:40;15.53;;;5.60;;
2404;SDS011;1213;43.206;27.922;2022-11-20T16:26:09;5.67;;;3.47;;
2404;SDS011;1213;43.206;27.922;2022-11-20T16:28:35;12.93;;;4.70;;
2404;SDS011;1213;43.206;27.922;2022-11-20T16:31:07;7.80;;;4.70;;